Terminal Aerodrome Forecast
Issued by NWS

Home | Current Version | Previous Version | Text Only | Print | Product List | Glossary On
Versions: 1 2 3 4 5 6 7 8 9 10 11 12 13 14 15 16 17 18 19 20 21 22 23 24 25 26 27
000
FTPQ31 PGUM 041756
TAFGUM
TAF

TAF
PGSN 041756Z 0418/0518 08025G35KT P6SM -RA VCSH SCT016 BKN040
      OVC120
      TEMPO 0418/0422 3SM +SHRA BKN014 BKN025
     FM050000 11025G35KT P6SM -RA SCT014 BKN030 OVC100
     FM050600 13020G30KT P6SM -SHRA SCT012 BKN030 OVC100=

USA.gov is the U.S. government's official web portal to all federal, state and local government web resources and services.